Flight Track Log - Related Links

Times and Time Zones

All times are in EDT time to prevent confusion due to time zone crossing. See the SWA1725 flight status page for this flight to view local times or setup timezone preferences in your user account.

Time Position Orientation Groundspeed Altitude Reporting Facility
EDT Latitude Longitude Course Direction KTS MPH feet Rate Location/Type
Tue 09:46:35 PM 41.7147 -87.7025 152° Southeast 214 246 6,000  Level Chicago Center
Tue 09:47:36 PM 41.6469 -87.7431 204° Southwest 261 300 10,100 3,561 Climbing Chicago Center
Tue 09:48:38 PM 41.5714 -87.7861 203° Southwest 292 336 13,300 3,561 Climbing Chicago Center
Tue 09:49:39 PM 41.4822 -87.8372 203° Southwest 341 392 17,400 3,805 Climbing Chicago Center
Tue 09:50:41 PM 41.3867 -87.8797 198° South 359 413 21,100 3,317 Climbing Chicago Center
Tue 09:51:42 PM 41.2772 -87.8903 184° South 383 441 24,200 2,803 Climbing Chicago Center
Tue 09:52:43 PM 41.1636 -87.8914 180° South 401 461 26,800 2,488 Climbing Chicago Center
Tue 09:53:45 PM 41.0444 -87.8867 178° South 422 486 29,300 2,341 Climbing Chicago Center
Tue 09:54:46 PM 40.9236 -87.8822 178° South 433 498 31,600 2,537 Climbing Chicago Center
Tue 09:55:48 PM 40.7781 -87.8531 171° South 443 510 34,500 2,537 Climbing Chicago Center
Tue 09:56:49 PM 40.6592 -87.8336 173° South 436 502 36,800 2,016 Climbing Chicago Center
Tue 09:57:50 PM 40.5414 -87.8147 173° South 428 493 38,600 1,561 Climbing Chicago Center
Tue 09:58:52 PM 40.4256 -87.7944 172° South 423 487 40,000 1,448 Climbing Chicago Center
Tue 09:59:17 PM 40.3708 -87.7847 172° South 425 489 40,700 698 Climbing Indianapolis Center
Tue 10:00:18 PM 40.2536 -87.7664 173° South 424 488 41,000 146 Climbing Indianapolis Center
Tue 10:01:20 PM 40.1353 -87.7464 173° South 426 490 41,000  Level Indianapolis Center
Tue 10:02:21 PM 40.0178 -87.7267 173° South 425 489 41,000  Level Indianapolis Center
Tue 10:03:22 PM 39.9000 -87.7081 173° South 425 489 41,000  Level Indianapolis Center
Tue 10:04:23 PM 39.7842 -87.6892 173° South 422 486 41,000  Level Indianapolis Center
Tue 10:05:24 PM 39.6681 -87.6697 173° South 420 483 41,000  Level Indianapolis Center
Tue 10:06:26 PM 39.5528 -87.6506 173° South 417 480 41,000  Level Indianapolis Center
Tue 10:07:27 PM 39.4378 -87.6314 173° South 416 479 41,000  Level Indianapolis Center
Tue 10:08:28 PM 39.3219 -87.6128 173° South 418 481 41,000  Level Indianapolis Center
Tue 10:09:29 PM 39.2058 -87.5933 173° South 419 482 41,000  Level Indianapolis Center
Tue 10:10:30 PM 39.0656 -87.5722 173° South 421 484 41,000  Level Indianapolis Center
Tue 10:11:31 PM 38.9483 -87.5533 173° South 424 488 41,000  Level Indianapolis Center
Tue 10:12:32 PM 38.8303 -87.5344 173° South 425 489 41,000  Level Indianapolis Center
Tue 10:13:34 PM 38.7128 -87.5158 173° South 425 489 41,000  Level Indianapolis Center
Tue 10:14:35 PM 38.5942 -87.4972 173° South 428 493 41,000  Level Indianapolis Center
Tue 10:15:36 PM 38.4753 -87.4789 173° South 430 495 41,000  Level Indianapolis Center
Tue 10:16:37 PM 38.3556 -87.4597 173° South 434 499 41,000  Level Indianapolis Center
Tue 10:17:38 PM 38.2356 -87.4422 173° South 436 502 41,000  Level Indianapolis Center
Tue 10:18:39 PM 38.1147 -87.4236 173° South 439 505 41,000  Level Indianapolis Center
Tue 10:19:40 PM 37.9942 -87.4031 172° South 440 506 41,000  Level Indianapolis Center
Tue 10:20:41 PM 37.8486 -87.3806 173° South 440 506 41,000  Level Indianapolis Center
Tue 10:21:42 PM 37.7367 -87.3628 173° South 439 505 41,000  Level Indianapolis Center
Tue 10:22:43 PM 37.6150 -87.3472 174° South 436 502 41,000  Level Indianapolis Center
Tue 10:23:08 PM 37.5514 -87.3358 172° South 424 488 41,000  Level Memphis Center
Tue 10:24:08 PM 37.4342 -87.3194 174° South 429 494 41,000  Level Memphis Center
Tue 10:25:08 PM 37.3150 -87.3006 173° South 429 494 41,000  Level Memphis Center
Tue 10:26:08 PM 37.1956 -87.2764 171° South 429 494 41,000  Level Memphis Center
Tue 10:27:08 PM 37.0908 -87.2467 167° South 434 499 41,000  Level Memphis Center
Tue 10:28:08 PM 36.9711 -87.2150 168° South 432 497 41,000  Level Memphis Center
Tue 10:29:08 PM 36.8536 -87.1833 168° South 432 497 41,000  Level Memphis Center
Tue 10:30:08 PM 36.7342 -87.1517 168° South 432 497 41,000  Level Memphis Center
Tue 10:31:08 PM 36.6164 -87.1178 167° South 432 497 41,000  Level Memphis Center
Tue 10:32:08 PM 36.4969 -87.0864 168° South 432 497 41,000  Level Memphis Center
Tue 10:33:08 PM 36.3794 -87.0603 170° South 432 497 41,000  Level Memphis Center
Tue 10:34:08 PM 36.2536 -87.0292 169° South 444 511 41,000  Level Memphis Center
Tue 10:35:08 PM 36.1358 -86.9903 165° South 449 517 41,000  Level Memphis Center
Tue 10:36:08 PM 36.0181 -86.9567 167° South 444 511 41,000  Level Memphis Center
Tue 10:37:08 PM 35.9003 -86.9231 167° South 439 505 41,000 -542 Level Memphis Center
Tue 10:38:54 PM 35.6797 -86.8636 168° South 449 517 39,500 -904 Descending Atlanta Center
Tue 10:39:54 PM 35.5656 -86.8342 168° South 438 504 38,500 -950 Descending Atlanta Center
Tue 10:40:54 PM 35.4472 -86.8022 168° South 433 498 37,600 -900 Descending Atlanta Center
Tue 10:41:54 PM 35.3333 -86.7731 168° South 428 493 36,700 -950 Descending Atlanta Center
Tue 10:42:54 PM 35.2150 -86.7411 168° South 433 498 35,700 -1,050 Descending Atlanta Center
Tue 10:43:54 PM 35.0947 -86.7117 169° South 433 498 34,600 -2,100 Descending Atlanta Center
Tue 10:44:54 PM 34.9764 -86.6800 168° South 433 498 31,500 -2,860 Descending Atlanta Center
Tue 10:45:20 PM 34.9231 -86.6669 169° South 432 497 30,500 -2,442 Descending Memphis Center
Tue 10:46:20 PM 34.8075 -86.6367 168° South 437 503 28,000 -2,500 Descending Memphis Center
Tue 10:47:20 PM 34.6997 -86.6564 189° South 406 467 25,500 -2,400 Descending Memphis Center
Tue 10:48:20 PM 34.5939 -86.6814 191° South 401 461 23,200 -2,336 Descending Memphis Center
Tue 10:49:13 PM 34.5061 -86.7083 194° South 367 422 21,100 -2,314 Descending Atlanta Center
Tue 10:49:30 PM 34.4811 -86.7075 178° South 393 452 20,500 -2,219 Descending Atlanta Center
Tue 10:50:26 PM 34.3847 -86.7344 193° South 355 409 18,400 -2,350 Descending Atlanta Center
Tue 10:51:30 PM 34.2819 -86.7539 189° South 368 423 15,800 -2,468 Descending Atlanta Center
Tue 10:52:30 PM 34.1833 -86.7783 192° South 368 423 13,300 -2,410 Descending Atlanta Center
Tue 10:53:27 PM 34.0889 -86.8056 193° South 346 398 11,100 -1,678 Descending Atlanta Center
Tue 10:54:28 PM 34.0006 -86.8253 190° South 300 345 10,000 -1,328 Descending Atlanta Center
Tue 10:55:29 PM 33.9272 -86.8428 191° South 263 303 8,400 -1,488 Descending Atlanta Center
Tue 10:56:29 PM 33.8558 -86.8606 192° South 266 306 7,000 -1,190 Descending Atlanta Center
Tue 10:57:30 PM 33.7972 -86.8711 189° South 258 297 6,000 -1,140 Descending Atlanta Center
Tue 10:58:30 PM 33.7300 -86.8914 194° South 210 242 4,700 -1,300 Descending Atlanta Center

Login

Don't have an account? Register now (free) for customized features, flight alerts, and more!